sensor_id;sensor_type;location;lat;lon;timestamp;P1;durP1;ratioP1;P2;durP2;ratioP2
35693;SDS011;21812;55.536;37.664;2023-03-14T00:01:19;3.55;;;2.33;;
35693;SDS011;21812;55.536;37.664;2023-03-14T00:03:46;2.83;;;1.42;;
35693;SDS011;21812;55.536;37.664;2023-03-14T00:06:12;2.55;;;1.63;;
35693;SDS011;21812;55.536;37.664;2023-03-14T00:08:39;4.65;;;1.85;;
35693;SDS011;21812;55.536;37.664;2023-03-14T00:11:06;2.65;;;1.48;;
35693;SDS011;21812;55.536;37.664;2023-03-14T00:13:33;2.00;;;1.40;;
35693;SDS011;21812;55.536;37.664;2023-03-14T00:16:06;3.30;;;1.70;;
35693;SDS011;21812;55.536;37.664;2023-03-14T00:18:33;2.63;;;1.50;;
35693;SDS011;21812;55.536;37.664;2023-03-14T00:21:00;2.10;;;1.15;;
35693;SDS011;21812;55.536;37.664;2023-03-14T00:23:30;2.83;;;1.42;;
35693;SDS011;21812;55.536;37.664;2023-03-14T00:26:01;1.95;;;0.98;;
35693;SDS011;21812;55.536;37.664;2023-03-14T00:28:29;2.75;;;1.30;;
35693;SDS011;21812;55.536;37.664;2023-03-14T00:30:55;1.60;;;0.85;;
35693;SDS011;21812;55.536;37.664;2023-03-14T00:33:21;2.63;;;1.58;;
35693;SDS011;21812;55.536;37.664;2023-03-14T00:35:59;1.88;;;1.00;;
35693;SDS011;21812;55.536;37.664;2023-03-14T00:38:29;2.22;;;1.20;;
35693;SDS011;21812;55.536;37.664;2023-03-14T00:40:56;1.17;;;0.98;;
35693;SDS011;21812;55.536;37.664;2023-03-14T00:43:22;3.47;;;1.20;;
35693;SDS011;21812;55.536;37.664;2023-03-14T00:45:49;2.40;;;0.80;;
35693;SDS011;21812;55.536;37.664;2023-03-14T00:48:15;1.23;;;0.80;;
35693;SDS011;21812;55.536;37.664;2023-03-14T00:50:41;2.55;;;1.10;;
35693;SDS011;21812;55.536;37.664;2023-03-14T00:53:06;2.28;;;0.70;;
35693;SDS011;21812;55.536;37.664;2023-03-14T00:55:35;3.15;;;0.75;;
35693;SDS011;21812;55.536;37.664;2023-03-14T00:58:02;4.47;;;0.98;;
35693;SDS011;21812;55.536;37.664;2023-03-14T01:00:27;3.15;;;0.95;;
35693;SDS011;21812;55.536;37.664;2023-03-14T01:02:53;1.10;;;1.00;;
35693;SDS011;21812;55.536;37.664;2023-03-14T01:05:19;1.90;;;1.00;;
35693;SDS011;21812;55.536;37.664;2023-03-14T01:07:47;1.25;;;0.70;;
35693;SDS011;21812;55.536;37.664;2023-03-14T01:10:13;1.55;;;0.82;;
35693;SDS011;21812;55.536;37.664;2023-03-14T01:12:38;2.22;;;0.90;;
35693;SDS011;21812;55.536;37.664;2023-03-14T01:15:04;4.50;;;0.63;;
35693;SDS011;21812;55.536;37.664;2023-03-14T01:17:31;3.03;;;1.17;;
35693;SDS011;21812;55.536;37.664;2023-03-14T01:19:57;1.58;;;0.77;;
35693;SDS011;21812;55.536;37.664;2023-03-14T01:22:23;4.95;;;1.13;;
35693;SDS011;21812;55.536;37.664;2023-03-14T01:24:48;3.70;;;0.93;;
35693;SDS011;21812;55.536;37.664;2023-03-14T01:27:14;1.90;;;1.10;;
35693;SDS011;21812;55.536;37.664;2023-03-14T01:29:40;2.35;;;1.20;;
35693;SDS011;21812;55.536;37.664;2023-03-14T01:32:06;2.55;;;0.82;;
35693;SDS011;21812;55.536;37.664;2023-03-14T01:34:32;3.00;;;0.90;;
35693;SDS011;21812;55.536;37.664;2023-03-14T01:36:57;3.30;;;0.90;;
35693;SDS011;21812;55.536;37.664;2023-03-14T01:39:23;2.17;;;1.60;;
35693;SDS011;21812;55.536;37.664;2023-03-14T01:41:49;2.08;;;0.90;;
35693;SDS011;21812;55.536;37.664;2023-03-14T01:44:15;1.52;;;0.85;;
35693;SDS011;21812;55.536;37.664;2023-03-14T01:46:42;1.88;;;1.10;;
35693;SDS011;21812;55.536;37.664;2023-03-14T01:49:14;2.95;;;1.23;;
35693;SDS011;21812;55.536;37.664;2023-03-14T01:52:00;3.65;;;1.30;;
35693;SDS011;21812;55.536;37.664;2023-03-14T01:54:40;3.70;;;1.08;;
35693;SDS011;21812;55.536;37.664;2023-03-14T01:57:18;1.77;;;1.00;;
35693;SDS011;21812;55.536;37.664;2023-03-14T01:59:50;2.67;;;1.27;;
35693;SDS011;21812;55.536;37.664;2023-03-14T02:02:20;2.75;;;1.30;;
35693;SDS011;21812;55.536;37.664;2023-03-14T02:04:47;4.13;;;1.80;;
35693;SDS011;21812;55.536;37.664;2023-03-14T02:07:20;1.17;;;0.85;;
35693;SDS011;21812;55.536;37.664;2023-03-14T02:09:58;2.13;;;1.08;;
35693;SDS011;21812;55.536;37.664;2023-03-14T02:12:28;2.13;;;1.50;;
35693;SDS011;21812;55.536;37.664;2023-03-14T02:15:09;2.88;;;1.30;;
35693;SDS011;21812;55.536;37.664;2023-03-14T02:17:56;3.10;;;1.10;;
35693;SDS011;21812;55.536;37.664;2023-03-14T02:23:20;2.28;;;1.40;;
35693;SDS011;21812;55.536;37.664;2023-03-14T02:26:10;3.33;;;1.73;;
35693;SDS011;21812;55.536;37.664;2023-03-14T02:28:40;2.85;;;1.60;;
35693;SDS011;21812;55.536;37.664;2023-03-14T02:31:08;1.48;;;0.90;;
35693;SDS011;21812;55.536;37.664;2023-03-14T02:33:34;3.22;;;1.08;;
35693;SDS011;21812;55.536;37.664;2023-03-14T02:36:04;2.63;;;1.40;;
35693;SDS011;21812;55.536;37.664;2023-03-14T02:41:42;1.92;;;1.40;;
35693;SDS011;21812;55.536;37.664;2023-03-14T02:44:10;5.75;;;2.03;;
35693;SDS011;21812;55.536;37.664;2023-03-14T02:46:36;2.90;;;1.30;;
35693;SDS011;21812;55.536;37.664;2023-03-14T02:49:03;2.42;;;1.73;;
35693;SDS011;21812;55.536;37.664;2023-03-14T02:51:31;2.15;;;1.48;;
35693;SDS011;21812;55.536;37.664;2023-03-14T02:53:58;2.97;;;1.35;;
35693;SDS011;21812;55.536;37.664;2023-03-14T02:56:24;3.20;;;1.65;;
35693;SDS011;21812;55.536;37.664;2023-03-14T02:58:50;3.88;;;1.95;;
35693;SDS011;21812;55.536;37.664;2023-03-14T03:01:54;1.95;;;1.58;;
35693;SDS011;21812;55.536;37.664;2023-03-14T03:04:19;3.53;;;1.25;;
35693;SDS011;21812;55.536;37.664;2023-03-14T03:06:45;4.18;;;1.70;;
35693;SDS011;21812;55.536;37.664;2023-03-14T03:09:11;2.47;;;1.55;;
35693;SDS011;21812;55.536;37.664;2023-03-14T03:11:37;3.60;;;1.58;;
35693;SDS011;21812;55.536;37.664;2023-03-14T03:14:04;4.78;;;2.10;;
35693;SDS011;21812;55.536;37.664;2023-03-14T03:16:30;2.30;;;1.67;;
35693;SDS011;21812;55.536;37.664;2023-03-14T03:18:55;2.20;;;1.75;;
35693;SDS011;21812;55.536;37.664;2023-03-14T03:21:21;4.57;;;2.60;;
35693;SDS011;21812;55.536;37.664;2023-03-14T03:23:48;3.33;;;1.95;;
35693;SDS011;21812;55.536;37.664;2023-03-14T03:26:14;2.78;;;2.05;;
35693;SDS011;21812;55.536;37.664;2023-03-14T03:28:40;8.90;;;2.92;;
35693;SDS011;21812;55.536;37.664;2023-03-14T03:31:10;2.97;;;1.93;;
35693;SDS011;21812;55.536;37.664;2023-03-14T03:33:37;3.03;;;2.10;;
35693;SDS011;21812;55.536;37.664;2023-03-14T03:36:04;4.33;;;2.17;;
35693;SDS011;21812;55.536;37.664;2023-03-14T03:38:33;4.77;;;1.73;;
35693;SDS011;21812;55.536;37.664;2023-03-14T03:41:03;2.73;;;2.17;;
35693;SDS011;21812;55.536;37.664;2023-03-14T03:43:30;3.50;;;2.03;;
35693;SDS011;21812;55.536;37.664;2023-03-14T03:45:56;4.10;;;2.07;;
35693;SDS011;21812;55.536;37.664;2023-03-14T03:48:22;3.90;;;2.33;;
35693;SDS011;21812;55.536;37.664;2023-03-14T03:50:48;7.47;;;2.40;;
35693;SDS011;21812;55.536;37.664;2023-03-14T03:53:18;2.43;;;2.10;;
35693;SDS011;21812;55.536;37.664;2023-03-14T03:55:44;4.40;;;2.03;;
35693;SDS011;21812;55.536;37.664;2023-03-14T03:58:10;4.50;;;2.43;;
35693;SDS011;21812;55.536;37.664;2023-03-14T04:00:35;4.90;;;2.20;;
35693;SDS011;21812;55.536;37.664;2023-03-14T04:03:01;5.37;;;2.80;;
35693;SDS011;21812;55.536;37.664;2023-03-14T04:05:27;3.33;;;2.17;;
35693;SDS011;21812;55.536;37.664;2023-03-14T04:07:59;3.97;;;2.33;;
35693;SDS011;21812;55.536;37.664;2023-03-14T04:10:27;6.03;;;2.00;;
35693;SDS011;21812;55.536;37.664;2023-03-14T04:13:22;6.37;;;2.27;;
35693;SDS011;21812;55.536;37.664;2023-03-14T04:15:51;3.43;;;2.80;;
35693;SDS011;21812;55.536;37.664;2023-03-14T04:18:22;4.67;;;2.53;;
35693;SDS011;21812;55.536;37.664;2023-03-14T04:20:50;4.53;;;2.03;;
35693;SDS011;21812;55.536;37.664;2023-03-14T04:23:23;4.57;;;2.63;;
35693;SDS011;21812;55.536;37.664;2023-03-14T04:25:53;5.47;;;1.97;;
35693;SDS011;21812;55.536;37.664;2023-03-14T04:28:20;5.97;;;3.33;;
35693;SDS011;21812;55.536;37.664;2023-03-14T04:30:46;2.83;;;2.27;;
35693;SDS011;21812;55.536;37.664;2023-03-14T04:33:16;3.87;;;2.33;;
35693;SDS011;21812;55.536;37.664;2023-03-14T04:35:52;3.90;;;2.13;;
35693;SDS011;21812;55.536;37.664;2023-03-14T04:38:19;3.63;;;2.50;;
35693;SDS011;21812;55.536;37.664;2023-03-14T04:40:46;3.80;;;2.63;;
35693;SDS011;21812;55.536;37.664;2023-03-14T04:43:13;7.40;;;2.90;;
35693;SDS011;21812;55.536;37.664;2023-03-14T04:45:46;2.73;;;2.27;;
35693;SDS011;21812;55.536;37.664;2023-03-14T04:48:12;5.30;;;3.07;;
35693;SDS011;21812;55.536;37.664;2023-03-14T04:50:38;4.23;;;2.50;;
35693;SDS011;21812;55.536;37.664;2023-03-14T04:53:04;4.83;;;3.10;;
35693;SDS011;21812;55.536;37.664;2023-03-14T04:55:30;6.07;;;2.67;;
35693;SDS011;21812;55.536;37.664;2023-03-14T04:57:58;4.50;;;2.43;;
35693;SDS011;21812;55.536;37.664;2023-03-14T05:00:24;2.77;;;2.47;;
35693;SDS011;21812;55.536;37.664;2023-03-14T05:02:52;5.43;;;2.30;;
35693;SDS011;21812;55.536;37.664;2023-03-14T05:05:30;2.83;;;2.00;;
35693;SDS011;21812;55.536;37.664;2023-03-14T05:08:01;4.27;;;2.13;;
35693;SDS011;21812;55.536;37.664;2023-03-14T05:10:39;7.67;;;2.70;;
35693;SDS011;21812;55.536;37.664;2023-03-14T05:13:28;5.57;;;2.60;;
35693;SDS011;21812;55.536;37.664;2023-03-14T05:16:14;2.83;;;2.20;;
35693;SDS011;21812;55.536;37.664;2023-03-14T05:18:45;4.07;;;2.53;;
35693;SDS011;21812;55.536;37.664;2023-03-14T05:21:30;3.27;;;2.10;;
35693;SDS011;21812;55.536;37.664;2023-03-14T05:26:58;7.27;;;3.10;;
35693;SDS011;21812;55.536;37.664;2023-03-14T05:29:41;6.53;;;2.90;;
35693;SDS011;21812;55.536;37.664;2023-03-14T05:32:18;2.40;;;1.63;;
35693;SDS011;21812;55.536;37.664;2023-03-14T05:34:52;4.75;;;2.75;;
35693;SDS011;21812;55.536;37.664;2023-03-14T05:37:29;6.40;;;3.40;;
35693;SDS011;21812;55.536;37.664;2023-03-14T05:40:17;4.07;;;2.50;;
35693;SDS011;21812;55.536;37.664;2023-03-14T05:42:56;8.43;;;2.90;;
35693;SDS011;21812;55.536;37.664;2023-03-14T05:45:40;3.20;;;2.17;;
35693;SDS011;21812;55.536;37.664;2023-03-14T05:48:25;4.33;;;2.17;;
35693;SDS011;21812;55.536;37.664;2023-03-14T05:51:11;7.93;;;2.50;;
35693;SDS011;21812;55.536;37.664;2023-03-14T05:54:08;3.93;;;2.30;;
35693;SDS011;21812;55.536;37.664;2023-03-14T05:56:54;4.77;;;2.27;;
35693;SDS011;21812;55.536;37.664;2023-03-14T05:59:20;8.23;;;2.30;;
35693;SDS011;21812;55.536;37.664;2023-03-14T06:02:03;8.25;;;2.00;;
35693;SDS011;21812;55.536;37.664;2023-03-14T06:04:38;3.10;;;2.37;;
35693;SDS011;21812;55.536;37.664;2023-03-14T06:07:03;6.40;;;2.30;;
35693;SDS011;21812;55.536;37.664;2023-03-14T06:09:30;6.97;;;2.40;;
35693;SDS011;21812;55.536;37.664;2023-03-14T06:11:58;3.83;;;2.20;;
35693;SDS011;21812;55.536;37.664;2023-03-14T06:14:25;4.77;;;2.63;;
35693;SDS011;21812;55.536;37.664;2023-03-14T06:16:51;3.20;;;1.47;;
35693;SDS011;21812;55.536;37.664;2023-03-14T06:19:20;4.47;;;2.65;;
35693;SDS011;21812;55.536;37.664;2023-03-14T06:21:46;5.00;;;2.50;;
35693;SDS011;21812;55.536;37.664;2023-03-14T06:24:12;8.23;;;3.20;;
35693;SDS011;21812;55.536;37.664;2023-03-14T06:26:41;4.28;;;2.30;;
35693;SDS011;21812;55.536;37.664;2023-03-14T06:29:10;3.42;;;2.08;;
35693;SDS011;21812;55.536;37.664;2023-03-14T06:31:38;4.37;;;2.30;;
35693;SDS011;21812;55.536;37.664;2023-03-14T06:34:05;6.50;;;2.77;;
35693;SDS011;21812;55.536;37.664;2023-03-14T06:36:32;5.17;;;2.20;;
35693;SDS011;21812;55.536;37.664;2023-03-14T06:38:58;3.88;;;2.20;;
35693;SDS011;21812;55.536;37.664;2023-03-14T06:41:25;6.17;;;2.33;;
35693;SDS011;21812;55.536;37.664;2023-03-14T06:43:51;5.10;;;2.30;;
35693;SDS011;21812;55.536;37.664;2023-03-14T06:46:19;4.43;;;2.20;;
35693;SDS011;21812;55.536;37.664;2023-03-14T06:48:44;13.02;;;2.58;;
35693;SDS011;21812;55.536;37.664;2023-03-14T06:51:11;8.98;;;2.65;;
35693;SDS011;21812;55.536;37.664;2023-03-14T06:53:36;14.57;;;2.33;;
35693;SDS011;21812;55.536;37.664;2023-03-14T06:56:02;5.20;;;2.35;;
35693;SDS011;21812;55.536;37.664;2023-03-14T06:58:30;3.55;;;2.30;;
35693;SDS011;21812;55.536;37.664;2023-03-14T07:00:57;7.25;;;2.40;;
35693;SDS011;21812;55.536;37.664;2023-03-14T07:03:28;4.80;;;2.53;;
35693;SDS011;21812;55.536;37.664;2023-03-14T07:05:55;5.30;;;1.75;;
35693;SDS011;21812;55.536;37.664;2023-03-14T07:08:20;4.22;;;1.92;;
35693;SDS011;21812;55.536;37.664;2023-03-14T07:10:46;4.90;;;2.33;;
35693;SDS011;21812;55.536;37.664;2023-03-14T07:13:12;5.32;;;2.30;;
35693;SDS011;21812;55.536;37.664;2023-03-14T07:15:48;3.10;;;1.90;;
35693;SDS011;21812;55.536;37.664;2023-03-14T07:18:14;3.80;;;2.03;;
35693;SDS011;21812;55.536;37.664;2023-03-14T07:20:40;5.38;;;1.83;;
35693;SDS011;21812;55.536;37.664;2023-03-14T07:23:06;6.18;;;2.45;;
35693;SDS011;21812;55.536;37.664;2023-03-14T07:25:50;5.28;;;2.50;;
35693;SDS011;21812;55.536;37.664;2023-03-14T07:28:18;6.25;;;2.90;;
35693;SDS011;21812;55.536;37.664;2023-03-14T07:30:46;5.68;;;2.08;;
35693;SDS011;21812;55.536;37.664;2023-03-14T07:33:17;6.65;;;2.80;;
35693;SDS011;21812;55.536;37.664;2023-03-14T07:35:43;4.05;;;2.00;;
35693;SDS011;21812;55.536;37.664;2023-03-14T07:38:08;3.67;;;2.10;;
35693;SDS011;21812;55.536;37.664;2023-03-14T07:40:39;8.88;;;2.90;;
35693;SDS011;21812;55.536;37.664;2023-03-14T07:43:05;6.68;;;2.67;;
35693;SDS011;21812;55.536;37.664;2023-03-14T07:45:47;8.18;;;2.88;;
35693;SDS011;21812;55.536;37.664;2023-03-14T07:48:12;8.35;;;3.08;;
35693;SDS011;21812;55.536;37.664;2023-03-14T07:50:38;5.03;;;2.40;;
35693;SDS011;21812;55.536;37.664;2023-03-14T07:53:03;4.45;;;2.17;;
35693;SDS011;21812;55.536;37.664;2023-03-14T07:55:29;9.48;;;5.05;;
35693;SDS011;21812;55.536;37.664;2023-03-14T07:57:55;5.25;;;2.63;;
35693;SDS011;21812;55.536;37.664;2023-03-14T08:00:20;3.90;;;2.33;;
35693;SDS011;21812;55.536;37.664;2023-03-14T08:02:46;3.05;;;2.05;;
35693;SDS011;21812;55.536;37.664;2023-03-14T08:05:12;4.82;;;2.28;;
35693;SDS011;21812;55.536;37.664;2023-03-14T08:07:37;3.88;;;2.38;;
35693;SDS011;21812;55.536;37.664;2023-03-14T08:10:03;4.57;;;2.20;;
35693;SDS011;21812;55.536;37.664;2023-03-14T08:12:29;4.93;;;2.28;;
35693;SDS011;21812;55.536;37.664;2023-03-14T08:14:55;8.15;;;2.47;;
35693;SDS011;21812;55.536;37.664;2023-03-14T08:17:20;3.67;;;2.10;;
35693;SDS011;21812;55.536;37.664;2023-03-14T08:19:46;4.30;;;2.00;;
35693;SDS011;21812;55.536;37.664;2023-03-14T08:22:12;4.88;;;2.80;;
35693;SDS011;21812;55.536;37.664;2023-03-14T08:24:38;3.47;;;2.20;;
35693;SDS011;21812;55.536;37.664;2023-03-14T08:27:03;5.50;;;2.58;;
35693;SDS011;21812;55.536;37.664;2023-03-14T08:29:29;6.30;;;2.63;;
35693;SDS011;21812;55.536;37.664;2023-03-14T08:31:54;5.93;;;2.90;;
35693;SDS011;21812;55.536;37.664;2023-03-14T08:34:20;5.20;;;2.70;;
35693;SDS011;21812;55.536;37.664;2023-03-14T08:36:46;7.78;;;2.75;;
35693;SDS011;21812;55.536;37.664;2023-03-14T08:39:11;5.43;;;2.67;;
35693;SDS011;21812;55.536;37.664;2023-03-14T08:41:37;4.63;;;3.17;;
35693;SDS011;21812;55.536;37.664;2023-03-14T08:44:08;6.43;;;2.75;;
35693;SDS011;21812;55.536;37.664;2023-03-14T08:46:34;5.63;;;3.38;;
35693;SDS011;21812;55.536;37.664;2023-03-14T08:49:00;4.13;;;2.90;;
35693;SDS011;21812;55.536;37.664;2023-03-14T08:51:27;5.57;;;3.22;;
35693;SDS011;21812;55.536;37.664;2023-03-14T08:53:55;4.93;;;2.35;;
35693;SDS011;21812;55.536;37.664;2023-03-14T08:56:21;5.15;;;2.83;;
35693;SDS011;21812;55.536;37.664;2023-03-14T08:58:46;4.78;;;2.67;;
35693;SDS011;21812;55.536;37.664;2023-03-14T09:01:12;5.60;;;2.70;;
35693;SDS011;21812;55.536;37.664;2023-03-14T09:03:38;2.47;;;2.03;;
35693;SDS011;21812;55.536;37.664;2023-03-14T09:06:07;5.43;;;2.60;;
35693;SDS011;21812;55.536;37.664;2023-03-14T09:08:35;4.75;;;2.47;;
35693;SDS011;21812;55.536;37.664;2023-03-14T09:11:01;3.65;;;2.65;;
35693;SDS011;21812;55.536;37.664;2023-03-14T09:13:27;6.35;;;2.53;;
35693;SDS011;21812;55.536;37.664;2023-03-14T09:15:53;3.05;;;2.08;;
35693;SDS011;21812;55.536;37.664;2023-03-14T09:18:20;5.20;;;2.47;;
35693;SDS011;21812;55.536;37.664;2023-03-14T09:20:46;4.63;;;2.60;;
35693;SDS011;21812;55.536;37.664;2023-03-14T09:23:11;3.92;;;2.42;;
35693;SDS011;21812;55.536;37.664;2023-03-14T09:25:37;4.95;;;2.40;;
35693;SDS011;21812;55.536;37.664;2023-03-14T09:28:03;4.97;;;2.20;;
35693;SDS011;21812;55.536;37.664;2023-03-14T09:30:29;5.20;;;2.47;;
35693;SDS011;21812;55.536;37.664;2023-03-14T09:32:55;4.75;;;2.25;;
35693;SDS011;21812;55.536;37.664;2023-03-14T09:35:22;4.40;;;2.80;;
35693;SDS011;21812;55.536;37.664;2023-03-14T09:37:48;9.95;;;2.65;;
35693;SDS011;21812;55.536;37.664;2023-03-14T09:40:17;3.75;;;2.53;;
35693;SDS011;21812;55.536;37.664;2023-03-14T09:42:45;4.90;;;2.92;;
35693;SDS011;21812;55.536;37.664;2023-03-14T09:45:54;8.00;;;3.97;;
35693;SDS011;21812;55.536;37.664;2023-03-14T09:48:19;8.98;;;3.05;;
35693;SDS011;21812;55.536;37.664;2023-03-14T09:50:50;3.67;;;2.25;;
35693;SDS011;21812;55.536;37.664;2023-03-14T09:53:19;5.00;;;2.85;;
35693;SDS011;21812;55.536;37.664;2023-03-14T09:55:49;5.55;;;2.70;;
35693;SDS011;21812;55.536;37.664;2023-03-14T09:58:19;5.35;;;3.25;;
35693;SDS011;21812;55.536;37.664;2023-03-14T10:00:46;4.65;;;2.83;;
35693;SDS011;21812;55.536;37.664;2023-03-14T10:05:38;5.03;;;2.72;;
35693;SDS011;21812;55.536;37.664;2023-03-14T10:08:10;4.57;;;2.85;;
35693;SDS011;21812;55.536;37.664;2023-03-14T10:10:36;5.53;;;3.08;;
35693;SDS011;21812;55.536;37.664;2023-03-14T10:13:19;3.88;;;2.50;;
35693;SDS011;21812;55.536;37.664;2023-03-14T10:15:53;4.55;;;2.17;;
35693;SDS011;21812;55.536;37.664;2023-03-14T10:18:19;7.28;;;2.70;;
35693;SDS011;21812;55.536;37.664;2023-03-14T10:20:48;4.40;;;3.10;;
35693;SDS011;21812;55.536;37.664;2023-03-14T10:25:43;7.40;;;3.17;;
35693;SDS011;21812;55.536;37.664;2023-03-14T10:28:24;3.08;;;2.35;;
35693;SDS011;21812;55.536;37.664;2023-03-14T10:30:50;5.10;;;2.65;;
35693;SDS011;21812;55.536;37.664;2023-03-14T10:33:20;3.88;;;2.58;;
35693;SDS011;21812;55.536;37.664;2023-03-14T10:35:55;3.85;;;2.33;;
35693;SDS011;21812;55.536;37.664;2023-03-14T10:38:24;7.43;;;2.25;;
35693;SDS011;21812;55.536;37.664;2023-03-14T10:40:53;3.78;;;2.47;;
35693;SDS011;21812;55.536;37.664;2023-03-14T10:43:24;10.10;;;4.15;;
35693;SDS011;21812;55.536;37.664;2023-03-14T10:45:54;6.10;;;2.55;;
35693;SDS011;21812;55.536;37.664;2023-03-14T10:49:00;4.38;;;2.50;;
35693;SDS011;21812;55.536;37.664;2023-03-14T10:51:31;4.40;;;2.95;;
35693;SDS011;21812;55.536;37.664;2023-03-14T10:54:13;5.80;;;2.97;;
35693;SDS011;21812;55.536;37.664;2023-03-14T10:56:44;4.30;;;2.33;;
35693;SDS011;21812;55.536;37.664;2023-03-14T10:59:13;7.82;;;2.53;;
35693;SDS011;21812;55.536;37.664;2023-03-14T11:29:41;3.97;;;2.83;;
35693;SDS011;21812;55.536;37.664;2023-03-14T11:35:50;5.53;;;2.83;;
35693;SDS011;21812;55.536;37.664;2023-03-14T11:40:49;5.60;;;2.67;;
35693;SDS011;21812;55.536;37.664;2023-03-14T11:45:51;3.97;;;2.13;;
35693;SDS011;21812;55.536;37.664;2023-03-14T11:48:37;6.20;;;2.20;;
35693;SDS011;21812;55.536;37.664;2023-03-14T11:51:52;7.10;;;2.55;;
35693;SDS011;21812;55.536;37.664;2023-03-14T11:57:09;3.15;;;2.35;;
35693;SDS011;21812;55.536;37.664;2023-03-14T11:59:25;5.85;;;3.53;;
35693;SDS011;21812;55.536;37.664;2023-03-14T12:07:20;5.55;;;2.35;;
35693;SDS011;21812;55.536;37.664;2023-03-14T12:09:49;5.30;;;2.90;;
35693;SDS011;21812;55.536;37.664;2023-03-14T12:12:19;5.55;;;2.45;;
35693;SDS011;21812;55.536;37.664;2023-03-14T12:14:57;3.53;;;2.28;;
35693;SDS011;21812;55.536;37.664;2023-03-14T12:17:37;4.53;;;2.30;;
35693;SDS011;21812;55.536;37.664;2023-03-14T12:22:46;4.57;;;3.13;;
35693;SDS011;21812;55.536;37.664;2023-03-14T12:41:34;6.37;;;2.73;;
35693;SDS011;21812;55.536;37.664;2023-03-14T12:43:54;3.20;;;2.35;;
35693;SDS011;21812;55.536;37.664;2023-03-14T12:46:21;4.85;;;2.22;;
35693;SDS011;21812;55.536;37.664;2023-03-14T12:51:38;3.35;;;2.05;;
35693;SDS011;21812;55.536;37.664;2023-03-14T12:54:09;3.72;;;1.98;;
35693;SDS011;21812;55.536;37.664;2023-03-14T12:57:09;8.88;;;3.03;;
35693;SDS011;21812;55.536;37.664;2023-03-14T12:59:56;5.72;;;2.55;;
35693;SDS011;21812;55.536;37.664;2023-03-14T13:02:37;3.65;;;2.50;;
35693;SDS011;21812;55.536;37.664;2023-03-14T13:15:22;5.13;;;2.85;;
35693;SDS011;21812;55.536;37.664;2023-03-14T13:18:02;9.43;;;2.67;;
35693;SDS011;21812;55.536;37.664;2023-03-14T13:20:36;4.80;;;2.63;;
35693;SDS011;21812;55.536;37.664;2023-03-14T13:23:18;5.57;;;2.60;;
35693;SDS011;21812;55.536;37.664;2023-03-14T13:25:46;6.78;;;2.75;;
35693;SDS011;21812;55.536;37.664;2023-03-14T13:28:13;6.30;;;3.78;;
35693;SDS011;21812;55.536;37.664;2023-03-14T13:30:40;4.88;;;2.88;;
35693;SDS011;21812;55.536;37.664;2023-03-14T13:33:18;7.80;;;3.20;;
35693;SDS011;21812;55.536;37.664;2023-03-14T13:35:46;4.65;;;2.75;;
35693;SDS011;21812;55.536;37.664;2023-03-14T13:38:33;4.45;;;3.15;;
35693;SDS011;21812;55.536;37.664;2023-03-14T13:41:03;5.88;;;3.33;;
35693;SDS011;21812;55.536;37.664;2023-03-14T13:43:32;3.63;;;2.95;;
35693;SDS011;21812;55.536;37.664;2023-03-14T13:46:01;4.57;;;2.75;;
35693;SDS011;21812;55.536;37.664;2023-03-14T13:48:30;5.60;;;2.67;;
35693;SDS011;21812;55.536;37.664;2023-03-14T13:51:07;3.90;;;3.00;;
35693;SDS011;21812;55.536;37.664;2023-03-14T13:56:14;3.72;;;2.67;;
35693;SDS011;21812;55.536;37.664;2023-03-14T13:58:40;7.15;;;3.25;;
35693;SDS011;21812;55.536;37.664;2023-03-14T14:03:57;6.88;;;3.40;;
35693;SDS011;21812;55.536;37.664;2023-03-14T14:06:28;5.57;;;2.95;;
35693;SDS011;21812;55.536;37.664;2023-03-14T14:09:01;4.78;;;4.30;;
35693;SDS011;21812;55.536;37.664;2023-03-14T14:11:41;4.13;;;2.58;;
35693;SDS011;21812;55.536;37.664;2023-03-14T14:14:26;5.45;;;2.97;;
35693;SDS011;21812;55.536;37.664;2023-03-14T14:16:56;4.80;;;2.78;;
35693;SDS011;21812;55.536;37.664;2023-03-14T14:19:23;3.85;;;2.58;;
35693;SDS011;21812;55.536;37.664;2023-03-14T14:21:52;4.70;;;2.47;;
35693;SDS011;21812;55.536;37.664;2023-03-14T14:24:19;5.43;;;3.20;;
35693;SDS011;21812;55.536;37.664;2023-03-14T14:26:52;3.42;;;2.53;;
35693;SDS011;21812;55.536;37.664;2023-03-14T14:29:27;5.88;;;3.78;;
35693;SDS011;21812;55.536;37.664;2023-03-14T14:35:06;5.47;;;3.08;;
35693;SDS011;21812;55.536;37.664;2023-03-14T14:37:30;6.10;;;2.55;;
35693;SDS011;21812;55.536;37.664;2023-03-14T14:39:59;7.25;;;3.10;;
35693;SDS011;21812;55.536;37.664;2023-03-14T14:42:31;4.97;;;2.63;;
35693;SDS011;21812;55.536;37.664;2023-03-14T14:44:58;4.07;;;2.67;;
35693;SDS011;21812;55.536;37.664;2023-03-14T14:47:26;4.47;;;2.90;;
35693;SDS011;21812;55.536;37.664;2023-03-14T14:49:54;4.85;;;3.00;;
35693;SDS011;21812;55.536;37.664;2023-03-14T14:52:34;4.40;;;2.60;;
35693;SDS011;21812;55.536;37.664;2023-03-14T14:55:13;7.93;;;3.08;;
35693;SDS011;21812;55.536;37.664;2023-03-14T14:57:48;4.30;;;2.85;;
35693;SDS011;21812;55.536;37.664;2023-03-14T15:00:20;5.22;;;3.55;;
35693;SDS011;21812;55.536;37.664;2023-03-14T15:02:51;5.40;;;2.85;;
35693;SDS011;21812;55.536;37.664;2023-03-14T15:05:23;5.50;;;3.00;;
35693;SDS011;21812;55.536;37.664;2023-03-14T15:07:51;6.22;;;3.03;;
35693;SDS011;21812;55.536;37.664;2023-03-14T15:10:18;6.13;;;3.13;;
35693;SDS011;21812;55.536;37.664;2023-03-14T15:12:45;5.55;;;3.65;;
35693;SDS011;21812;55.536;37.664;2023-03-14T15:15:13;6.70;;;3.03;;
35693;SDS011;21812;55.536;37.664;2023-03-14T15:17:38;5.53;;;2.70;;
35693;SDS011;21812;55.536;37.664;2023-03-14T15:20:05;4.90;;;2.42;;
35693;SDS011;21812;55.536;37.664;2023-03-14T15:22:35;5.95;;;2.85;;
35693;SDS011;21812;55.536;37.664;2023-03-14T15:25:01;4.18;;;2.90;;
35693;SDS011;21812;55.536;37.664;2023-03-14T15:27:28;3.70;;;2.60;;
35693;SDS011;21812;55.536;37.664;2023-03-14T15:29:56;6.07;;;3.10;;
35693;SDS011;21812;55.536;37.664;2023-03-14T15:32:21;6.35;;;3.40;;
35693;SDS011;21812;55.536;37.664;2023-03-14T15:34:47;5.32;;;3.05;;
35693;SDS011;21812;55.536;37.664;2023-03-14T15:37:13;5.13;;;3.17;;
35693;SDS011;21812;55.536;37.664;2023-03-14T15:39:41;4.65;;;2.80;;
35693;SDS011;21812;55.536;37.664;2023-03-14T15:42:08;4.28;;;2.72;;
35693;SDS011;21812;55.536;37.664;2023-03-14T15:44:34;10.02;;;3.70;;
35693;SDS011;21812;55.536;37.664;2023-03-14T15:46:59;5.63;;;4.03;;
35693;SDS011;21812;55.536;37.664;2023-03-14T15:49:25;6.22;;;3.35;;
35693;SDS011;21812;55.536;37.664;2023-03-14T15:51:51;3.67;;;2.72;;
35693;SDS011;21812;55.536;37.664;2023-03-14T15:54:16;5.13;;;3.10;;
35693;SDS011;21812;55.536;37.664;2023-03-14T15:56:42;6.10;;;3.88;;
35693;SDS011;21812;55.536;37.664;2023-03-14T15:59:08;5.95;;;3.22;;
35693;SDS011;21812;55.536;37.664;2023-03-14T16:01:33;6.00;;;3.20;;
35693;SDS011;21812;55.536;37.664;2023-03-14T16:03:59;7.07;;;3.50;;
35693;SDS011;21812;55.536;37.664;2023-03-14T16:06:24;5.45;;;3.15;;
35693;SDS011;21812;55.536;37.664;2023-03-14T16:08:50;5.88;;;2.97;;
35693;SDS011;21812;55.536;37.664;2023-03-14T16:11:16;5.82;;;3.03;;
35693;SDS011;21812;55.536;37.664;2023-03-14T16:13:45;5.70;;;3.28;;
35693;SDS011;21812;55.536;37.664;2023-03-14T16:16:11;8.75;;;3.70;;
35693;SDS011;21812;55.536;37.664;2023-03-14T16:18:38;5.80;;;3.67;;
35693;SDS011;21812;55.536;37.664;2023-03-14T16:21:14;9.15;;;4.90;;
35693;SDS011;21812;55.536;37.664;2023-03-14T16:23:42;6.22;;;3.17;;
35693;SDS011;21812;55.536;37.664;2023-03-14T16:26:09;6.78;;;3.33;;
35693;SDS011;21812;55.536;37.664;2023-03-14T16:28:40;9.20;;;2.95;;